createdAt,value
2018-11-02T00:01:45.101Z,14.20
2018-11-02T00:04:12.348Z,14.13
2018-11-02T00:06:39.503Z,14.60
2018-11-02T00:09:06.973Z,15.53
2018-11-02T00:11:34.079Z,14.30
2018-11-02T00:14:01.160Z,14.67
2018-11-02T00:16:29.104Z,14.90
2018-11-02T00:18:56.481Z,14.93
2018-11-02T00:21:23.565Z,13.43
2018-11-02T00:23:50.900Z,12.80
2018-11-02T00:26:18.042Z,13.60
2018-11-02T00:28:45.121Z,14.60
2018-11-02T00:31:12.824Z,14.70
2018-11-02T00:33:39.908Z,14.17
2018-11-02T00:36:07.067Z,13.90
2018-11-02T00:38:34.154Z,15.47
2018-11-02T00:41:01.259Z,16.13
2018-11-02T00:43:28.336Z,15.00
2018-11-02T00:45:56.148Z,15.30
2018-11-02T00:48:23.192Z,15.80
2018-11-02T00:50:50.227Z,15.40
2018-11-02T00:53:17.341Z,15.07
2018-11-02T00:55:44.404Z,15.03
2018-11-02T00:58:11.536Z,15.07
2018-11-02T01:00:38.895Z,15.87
2018-11-02T01:03:05.974Z,15.03
2018-11-02T01:05:33.043Z,14.87
2018-11-02T01:08:00.358Z,14.83
2018-11-02T01:10:27.383Z,14.47
2018-11-02T01:12:54.501Z,15.10
2018-11-02T01:15:21.572Z,14.50
2018-11-02T01:17:48.612Z,14.50
2018-11-02T01:20:15.667Z,15.40
2018-11-02T01:22:42.960Z,14.07
2018-11-02T01:25:10.024Z,12.87
2018-11-02T01:27:37.118Z,13.93
2018-11-02T01:30:04.692Z,13.83
2018-11-02T01:32:31.760Z,14.63
2018-11-02T01:34:58.959Z,15.33
2018-11-02T01:37:26.431Z,14.63
2018-11-02T01:39:53.479Z,13.20
2018-11-02T01:42:20.588Z,12.97
2018-11-02T01:44:47.830Z,13.37
2018-11-02T01:47:14.976Z,13.90
2018-11-02T01:49:42.022Z,14.13
2018-11-02T01:52:09.722Z,13.93
2018-11-02T01:54:37.024Z,13.33
2018-11-02T01:57:04.263Z,14.07
2018-11-02T01:59:31.350Z,13.63
2018-11-02T02:01:58.740Z,12.97
2018-11-02T02:04:25.799Z,13.27
2018-11-02T02:06:53.357Z,13.50
2018-11-02T02:09:20.549Z,13.50
2018-11-02T02:11:47.760Z,13.80
2018-11-02T02:14:15.421Z,13.87
2018-11-02T02:16:42.556Z,13.70
2018-11-02T02:19:09.608Z,14.87
2018-11-02T02:21:36.828Z,14.00
2018-11-02T02:24:04.004Z,14.50
2018-11-02T02:26:31.055Z,13.87
2018-11-02T02:28:58.466Z,13.33
2018-11-02T02:31:25.589Z,13.57
2018-11-02T02:33:52.792Z,13.17
2018-11-02T02:36:20.108Z,13.37
2018-11-02T02:38:47.171Z,13.00
2018-11-02T02:41:14.234Z,13.27
2018-11-02T02:43:41.299Z,12.87
2018-11-02T02:46:08.353Z,13.00
2018-11-02T02:48:35.407Z,13.90
2018-11-02T02:51:02.852Z,13.67
2018-11-02T02:53:29.914Z,14.17
2018-11-02T02:55:57.028Z,13.60
2018-11-02T02:58:24.363Z,12.93
2018-11-02T03:00:51.467Z,13.30
2018-11-02T03:03:18.520Z,12.87
2018-11-02T03:05:45.592Z,13.30
2018-11-02T03:08:12.627Z,12.77
2018-11-02T03:10:39.737Z,14.00
2018-11-02T03:13:06.805Z,15.00
2018-11-02T03:15:33.872Z,13.60
2018-11-02T03:18:00.906Z,13.90
2018-11-02T03:20:28.007Z,12.00
2018-11-02T03:22:55.075Z,13.03
2018-11-02T03:25:22.124Z,12.73
2018-11-02T03:27:49.415Z,13.13
2018-11-02T03:30:16.497Z,12.57
2018-11-02T03:32:43.624Z,12.07
2018-11-02T03:35:10.757Z,11.10
2018-11-02T03:37:37.792Z,12.87
2018-11-02T03:40:05.307Z,12.00
2018-11-02T03:42:32.361Z,12.50
2018-11-02T03:44:59.475Z,12.30
2018-11-02T03:47:26.520Z,13.00
2018-11-02T03:49:53.759Z,11.90
2018-11-02T03:52:20.801Z,11.70
2018-11-02T03:54:47.991Z,11.60
2018-11-02T03:57:15.453Z,11.37
2018-11-02T03:59:42.523Z,12.00
2018-11-02T04:02:09.552Z,12.43
2018-11-02T04:04:36.896Z,13.07
2018-11-02T04:07:03.955Z,12.33
2018-11-02T04:09:31.068Z,11.60
2018-11-02T04:11:58.447Z,11.90
2018-11-02T04:14:25.474Z,11.70
2018-11-02T04:16:52.505Z,11.90
2018-11-02T04:19:19.811Z,12.10
2018-11-02T04:21:47.681Z,11.83
2018-11-02T04:24:14.730Z,11.37
2018-11-02T04:26:41.983Z,11.77
2018-11-02T04:29:10.047Z,11.17
2018-11-02T04:31:37.082Z,12.93
2018-11-02T04:34:04.216Z,11.30
2018-11-02T04:36:31.243Z,10.50
2018-11-02T04:38:58.262Z,11.00
2018-11-02T04:41:25.584Z,12.30
2018-11-02T04:43:52.608Z,11.00
2018-11-02T04:46:19.641Z,11.73
2018-11-02T04:48:46.743Z,11.03
2018-11-02T04:51:14.218Z,10.27
2018-11-02T04:53:41.365Z,10.90
2018-11-02T04:56:08.730Z,10.67
2018-11-02T04:58:35.725Z,11.90
2018-11-02T05:01:02.740Z,11.27
2018-11-02T05:03:29.805Z,11.03
2018-11-02T05:05:56.879Z,12.00
2018-11-02T05:08:23.915Z,10.80
2018-11-02T05:10:51.072Z,10.47
2018-11-02T05:13:18.105Z,11.00
2018-11-02T05:15:45.231Z,11.20
2018-11-02T05:18:12.307Z,10.70
2018-11-02T05:20:39.354Z,11.90
2018-11-02T05:23:06.474Z,11.57
2018-11-02T05:25:33.775Z,11.23
2018-11-02T05:28:00.910Z,10.97
2018-11-02T05:30:28.044Z,10.67
2018-11-02T05:32:55.464Z,11.30
2018-11-02T05:35:22.567Z,10.70
2018-11-02T05:37:49.590Z,10.93
2018-11-02T05:40:16.878Z,11.30
2018-11-02T05:42:43.912Z,10.77
2018-11-02T05:45:10.940Z,11.50
2018-11-02T05:47:38.024Z,21.10
2018-11-02T05:50:05.878Z,12.20
2018-11-02T05:52:33.031Z,11.50
2018-11-02T05:55:00.403Z,11.20
2018-11-02T05:57:27.464Z,11.07
2018-11-02T05:59:54.487Z,10.80
2018-11-02T06:02:21.928Z,11.50
2018-11-02T06:04:48.995Z,11.47
2018-11-02T06:07:16.291Z,11.20
2018-11-02T06:09:43.366Z,11.67
2018-11-02T06:12:10.393Z,18.83
2018-11-02T06:14:37.413Z,11.20
2018-11-02T06:17:04.671Z,11.47
2018-11-02T06:19:32.033Z,10.83
2018-11-02T06:21:59.111Z,11.17
2018-11-02T06:24:26.203Z,11.03
2018-11-02T06:26:53.215Z,10.80
2018-11-02T06:29:20.265Z,11.10
2018-11-02T06:31:47.359Z,12.90
2018-11-02T06:34:14.396Z,10.30
2018-11-02T06:36:41.455Z,11.10
2018-11-02T06:39:09.738Z,11.00
2018-11-02T06:41:36.794Z,10.53
2018-11-02T06:44:03.885Z,11.53
2018-11-02T06:46:31.015Z,10.47
2018-11-02T06:48:58.056Z,10.60
2018-11-02T06:51:25.176Z,12.07
2018-11-02T06:53:52.528Z,10.90
2018-11-02T06:56:19.639Z,10.90
2018-11-02T06:58:46.739Z,11.03
2018-11-02T07:01:13.849Z,11.73
2018-11-02T07:03:40.883Z,11.20
2018-11-02T07:06:07.969Z,11.37
2018-11-02T07:08:35.648Z,12.53
2018-11-02T07:11:02.660Z,11.20
2018-11-02T07:13:29.698Z,12.77
2018-11-02T07:15:57.008Z,11.47
2018-11-02T07:18:24.056Z,14.80
2018-11-02T07:20:51.122Z,10.30
2018-11-02T07:23:18.484Z,11.00
2018-11-02T07:25:45.566Z,11.13
2018-11-02T07:28:12.756Z,14.70
2018-11-02T07:30:39.825Z,11.23
2018-11-02T07:33:06.872Z,16.00
2018-11-02T07:35:34.043Z,12.07
2018-11-02T07:38:01.770Z,11.20
2018-11-02T07:40:28.953Z,10.70
2018-11-02T07:42:56.038Z,13.83
2018-11-02T07:45:23.103Z,12.87
2018-11-02T07:47:50.517Z,11.83
2018-11-02T07:50:17.359Z,12.37
2018-11-02T07:52:44.751Z,14.33
2018-11-02T07:55:13.226Z,12.27
2018-11-02T07:57:40.523Z,9.93
2018-11-02T08:00:10.998Z,11.03
2018-11-02T08:02:38.641Z,9.90
2018-11-02T08:05:05.803Z,10.63
2018-11-02T08:07:33.338Z,10.40
2018-11-02T08:10:00.584Z,15.37
2018-11-02T08:12:27.629Z,10.17
2018-11-02T08:14:54.804Z,9.37
2018-11-02T08:17:21.912Z,10.13
2018-11-02T08:19:48.978Z,10.00
2018-11-02T08:22:16.281Z,10.50
2018-11-02T08:24:43.497Z,9.90
2018-11-02T08:27:10.433Z,9.17
2018-11-02T08:29:37.491Z,10.90
2018-11-02T08:32:04.563Z,9.23
2018-11-02T08:34:31.599Z,8.90
2018-11-02T08:36:59.136Z,9.27
2018-11-02T08:39:26.217Z,8.30
2018-11-02T08:41:53.263Z,8.23
2018-11-02T08:44:20.623Z,9.43
2018-11-02T08:46:47.685Z,8.60
2018-11-02T08:49:15.073Z,8.70
2018-11-02T08:51:42.495Z,8.80
2018-11-02T08:54:09.595Z,7.97
2018-11-02T08:56:36.648Z,8.90
2018-11-02T08:59:03.807Z,8.10
2018-11-02T09:01:30.820Z,7.37
2018-11-02T09:03:57.987Z,8.20
2018-11-02T09:06:25.403Z,10.33
2018-11-02T09:08:52.455Z,8.63
2018-11-02T09:11:19.507Z,7.10
2018-11-02T09:13:46.623Z,7.90
2018-11-02T09:16:13.674Z,7.97
2018-11-02T09:18:41.201Z,7.30
2018-11-02T09:21:08.523Z,7.03
2018-11-02T09:23:35.723Z,8.30
2018-11-02T09:26:04.099Z,7.10
2018-11-02T09:28:31.200Z,7.43
2018-11-02T09:30:58.323Z,7.10
2018-11-02T09:33:25.388Z,6.97
2018-11-02T09:35:52.755Z,7.63
2018-11-02T09:38:19.799Z,7.50
2018-11-02T09:40:46.857Z,7.40
2018-11-02T09:43:13.968Z,6.80
2018-11-02T09:45:41.180Z,7.23
2018-11-02T09:48:08.396Z,7.60
2018-11-02T09:50:36.228Z,6.10
2018-11-02T09:53:03.365Z,7.37
2018-11-02T09:55:30.436Z,7.30
2018-11-02T09:57:57.499Z,7.13
2018-11-02T10:00:24.605Z,7.03
2018-11-02T10:02:51.676Z,6.70
2018-11-02T10:05:18.767Z,6.70
2018-11-02T10:07:45.803Z,6.40
2018-11-02T10:10:12.870Z,6.00
2018-11-02T10:12:39.989Z,5.67
2018-11-02T10:15:07.976Z,5.77
2018-11-02T10:17:35.084Z,6.23
2018-11-02T10:20:02.665Z,5.83
2018-11-02T10:22:29.717Z,6.10
2018-11-02T10:24:56.809Z,6.40
2018-11-02T10:27:24.158Z,6.67
2018-11-02T10:29:51.287Z,5.83
2018-11-02T10:32:21.392Z,5.30
2018-11-02T10:34:48.955Z,5.53
2018-11-02T10:37:16.785Z,6.57
2018-11-02T10:39:44.020Z,5.60
2018-11-02T10:42:11.432Z,6.73
2018-11-02T10:44:40.762Z,5.20
2018-11-02T10:47:08.179Z,4.90
2018-11-02T10:49:35.695Z,4.67
2018-11-02T10:52:03.047Z,5.63
2018-11-02T10:54:30.144Z,5.20
2018-11-02T10:56:57.459Z,5.20
2018-11-02T10:59:24.686Z,4.00
2018-11-02T11:01:57.659Z,7.73
2018-11-02T11:04:24.875Z,5.60
2018-11-02T11:06:52.014Z,5.07
2018-11-02T11:09:19.510Z,4.60
2018-11-02T11:11:46.808Z,4.40
2018-11-02T11:14:13.990Z,4.67
2018-11-02T11:16:41.091Z,5.07
2018-11-02T11:19:09.356Z,4.50
2018-11-02T11:21:37.049Z,5.30
2018-11-02T11:24:04.467Z,5.57
2018-11-02T11:26:31.585Z,4.80
2018-11-02T11:28:58.794Z,5.40
2018-11-02T11:31:25.882Z,4.90
2018-11-02T11:33:53.072Z,6.40
2018-11-02T11:36:20.188Z,5.67
2018-11-02T11:38:47.343Z,5.93
2018-11-02T11:41:14.440Z,4.50
2018-11-02T11:43:41.548Z,5.00
2018-11-02T11:46:08.883Z,5.00
2018-11-02T11:48:36.669Z,4.37
2018-11-02T11:51:03.985Z,5.07
2018-11-02T11:53:31.435Z,4.97
2018-11-02T11:55:58.561Z,4.47
2018-11-02T11:58:25.705Z,4.63
2018-11-02T12:00:53.049Z,4.80
2018-11-02T12:03:20.172Z,4.73
2018-11-02T12:05:47.381Z,4.67
2018-11-02T12:08:14.790Z,4.80
2018-11-02T12:10:41.855Z,5.33
2018-11-02T12:13:09.067Z,5.00
2018-11-02T12:15:36.153Z,4.37
2018-11-02T12:18:03.511Z,5.20
2018-11-02T12:20:30.683Z,4.70
2018-11-02T12:22:58.699Z,5.00
2018-11-02T12:25:25.855Z,4.20
2018-11-02T12:27:53.046Z,5.23
2018-11-02T12:30:20.346Z,4.90
2018-11-02T12:32:47.420Z,5.27
2018-11-02T12:35:16.253Z,4.50
2018-11-02T12:37:43.335Z,5.20
2018-11-02T12:40:12.691Z,5.50
2018-11-02T12:42:40.354Z,5.17
2018-11-02T12:45:08.570Z,5.17
2018-11-02T12:47:36.288Z,4.50
2018-11-02T12:50:04.019Z,4.70
2018-11-02T12:52:31.095Z,4.63
2018-11-02T12:54:58.131Z,5.40
2018-11-02T12:57:25.366Z,5.00
2018-11-02T12:59:52.464Z,4.40
2018-11-02T13:02:19.502Z,4.97
2018-11-02T13:04:46.638Z,5.20
2018-11-02T13:07:13.715Z,5.63
2018-11-02T13:09:41.631Z,4.60
2018-11-02T13:12:08.623Z,5.30
2018-11-02T13:14:35.748Z,5.40
2018-11-02T13:17:03.100Z,4.70
2018-11-02T13:19:30.160Z,5.50
2018-11-02T13:21:57.619Z,5.60
2018-11-02T13:24:24.578Z,4.97
2018-11-02T13:26:51.803Z,6.10
2018-11-02T13:29:18.939Z,5.70
2018-11-02T13:31:46.205Z,5.70
2018-11-02T13:34:13.268Z,6.07
2018-11-02T13:36:40.541Z,6.13
2018-11-02T13:39:07.869Z,6.07
2018-11-02T13:41:34.957Z,5.13
2018-11-02T13:44:02.010Z,6.23
2018-11-02T13:46:29.162Z,6.83
2018-11-02T13:48:56.225Z,5.80
2018-11-02T13:51:23.740Z,5.30
2018-11-02T13:53:50.860Z,5.87
2018-11-02T13:56:17.916Z,5.53
2018-11-02T13:58:44.982Z,5.70
2018-11-02T14:01:12.101Z,6.17
2018-11-02T14:03:39.192Z,4.60
2018-11-02T14:06:06.502Z,4.97
2018-11-02T14:08:33.575Z,4.83
2018-11-02T14:11:00.631Z,5.10
2018-11-02T14:13:27.731Z,5.33
2018-11-02T14:15:54.783Z,5.03
2018-11-02T14:18:21.873Z,5.03
2018-11-02T14:20:48.995Z,4.70
2018-11-02T14:23:16.064Z,5.13
2018-11-02T14:25:43.120Z,4.70
2018-11-02T14:28:10.320Z,4.80
2018-11-02T14:30:37.657Z,5.33
2018-11-02T14:33:04.952Z,4.60
2018-11-02T14:35:32.407Z,6.13
2018-11-02T14:38:00.568Z,5.40
2018-11-02T14:40:27.819Z,4.73
2018-11-02T14:42:55.014Z,5.67
2018-11-02T14:45:22.139Z,6.30
2018-11-02T14:47:49.252Z,4.90
2018-11-02T14:50:16.684Z,5.13
2018-11-02T14:52:43.887Z,5.37
2018-11-02T14:55:11.349Z,4.30
2018-11-02T14:57:38.804Z,4.20
2018-11-02T15:00:06.805Z,4.67
2018-11-02T15:02:33.851Z,4.70
2018-11-02T15:05:01.286Z,6.70
2018-11-02T15:07:28.433Z,9.90
2018-11-02T15:09:55.484Z,5.90
2018-11-02T15:12:22.837Z,4.40
2018-11-02T15:14:49.930Z,8.00
2018-11-02T15:17:16.980Z,5.77
2018-11-02T15:19:45.140Z,7.87
2018-11-02T15:22:12.284Z,5.30
2018-11-02T15:24:39.325Z,6.50
2018-11-02T15:27:06.649Z,5.50
2018-11-02T15:29:33.768Z,6.70
2018-11-02T15:32:00.852Z,6.20
2018-11-02T15:34:27.956Z,5.10
2018-11-02T15:36:55.153Z,6.40
2018-11-02T15:39:22.461Z,6.00
2018-11-02T15:41:49.864Z,6.63
2018-11-02T15:44:17.017Z,10.00
2018-11-02T15:46:44.144Z,6.43
2018-11-02T15:49:11.406Z,5.87
2018-11-02T15:51:38.459Z,5.77
2018-11-02T15:54:05.523Z,6.40
2018-11-02T15:56:32.601Z,6.10
2018-11-02T15:58:59.809Z,5.73
2018-11-02T16:01:26.916Z,6.40
2018-11-02T16:03:54.332Z,9.30
2018-11-02T16:06:21.371Z,11.87
2018-11-02T16:08:48.408Z,10.37
2018-11-02T16:11:15.772Z,8.43
2018-11-02T16:13:42.819Z,8.10
2018-11-02T16:16:09.984Z,7.40
2018-11-02T16:18:37.475Z,6.57
2018-11-02T16:21:04.511Z,6.33
2018-11-02T16:23:31.576Z,6.90
2018-11-02T16:25:58.661Z,5.80
2018-11-02T16:28:25.723Z,5.80
2018-11-02T16:30:52.841Z,6.20
2018-11-02T16:33:20.182Z,8.20
2018-11-02T16:35:47.267Z,6.50
2018-11-02T16:38:14.321Z,8.53
2018-11-02T16:40:41.406Z,12.80
2018-11-02T16:43:08.556Z,9.93
2018-11-02T16:45:35.635Z,11.37
2018-11-02T16:48:03.050Z,6.57
2018-11-02T16:50:30.095Z,7.43
2018-11-02T16:52:57.115Z,9.10
2018-11-02T16:55:24.267Z,11.17
2018-11-02T16:57:51.445Z,10.57
2018-11-02T17:00:18.794Z,9.53
2018-11-02T17:02:47.260Z,10.97
2018-11-02T17:05:14.623Z,12.10
2018-11-02T17:07:42.115Z,13.07
2018-11-02T17:10:10.663Z,10.97
2018-11-02T17:12:38.252Z,10.37
2018-11-02T17:15:05.553Z,9.53
2018-11-02T17:17:32.740Z,10.00
2018-11-02T17:19:59.856Z,13.33
2018-11-02T17:22:26.982Z,12.80
2018-11-02T17:24:54.371Z,11.17
2018-11-02T17:27:21.425Z,10.90
2018-11-02T17:29:48.520Z,11.30
2018-11-02T17:32:15.940Z,12.70
2018-11-02T17:34:43.000Z,14.23
2018-11-02T17:37:10.076Z,15.50
2018-11-02T17:39:37.145Z,12.67
2018-11-02T17:42:04.235Z,14.10
2018-11-02T17:44:31.267Z,11.10
2018-11-02T17:46:58.683Z,11.10
2018-11-02T17:49:25.751Z,12.43
2018-11-02T17:51:52.820Z,13.10
2018-11-02T17:54:20.151Z,11.37
2018-11-02T17:56:47.360Z,14.60
2018-11-02T17:59:14.504Z,13.90
2018-11-02T18:01:41.536Z,11.90
2018-11-02T18:04:08.645Z,12.50
2018-11-02T18:06:35.695Z,11.03
2018-11-02T18:09:04.020Z,13.00
2018-11-02T18:11:31.122Z,9.60
2018-11-02T18:13:58.158Z,10.47
2018-11-02T18:16:25.235Z,11.40
2018-11-02T18:18:52.527Z,12.97
2018-11-02T18:21:19.473Z,11.90
2018-11-02T18:23:46.531Z,15.33
2018-11-02T18:26:13.608Z,14.50
2018-11-02T18:28:40.771Z,10.63
2018-11-02T18:31:07.847Z,13.63
2018-11-02T18:33:34.944Z,20.20
2018-11-02T18:36:01.977Z,17.10
2018-11-02T18:38:29.403Z,12.27
2018-11-02T18:40:56.448Z,14.30
2018-11-02T18:43:23.475Z,15.47
2018-11-02T18:45:50.516Z,15.13
2018-11-02T18:48:19.500Z,12.93
2018-11-02T18:50:46.560Z,14.60
2018-11-02T18:53:13.880Z,14.70
2018-11-02T18:55:40.952Z,12.90
2018-11-02T18:58:07.998Z,12.80
2018-11-02T19:00:35.315Z,13.00
2018-11-02T19:03:02.336Z,11.77
2018-11-02T19:05:29.398Z,14.27
2018-11-02T19:07:56.755Z,19.13
2018-11-02T19:10:23.783Z,13.83
2018-11-02T19:12:50.815Z,13.13
2018-11-02T19:15:18.748Z,15.23
2018-11-02T19:17:45.810Z,14.90
2018-11-02T19:20:13.160Z,15.30
2018-11-02T19:22:40.228Z,15.00
2018-11-02T19:25:07.924Z,13.33
2018-11-02T19:27:35.275Z,14.87
2018-11-02T19:30:02.556Z,14.47
2018-11-02T19:32:29.628Z,17.60
2018-11-02T19:34:56.972Z,17.50
2018-11-02T19:37:24.271Z,18.00
2018-11-02T19:39:51.299Z,16.27
2018-11-02T19:42:18.354Z,19.70
2018-11-02T19:44:45.376Z,18.60
2018-11-02T19:47:12.416Z,17.10
2018-11-02T19:49:39.460Z,16.83
2018-11-02T19:52:06.764Z,14.03
2018-11-02T19:54:33.799Z,13.00
2018-11-02T19:57:00.834Z,14.47
2018-11-02T19:59:27.883Z,15.80
2018-11-02T20:01:54.943Z,14.33
2018-11-02T20:04:21.976Z,14.57
2018-11-02T20:06:49.027Z,17.27
2018-11-02T20:09:16.067Z,14.30
2018-11-02T20:11:43.281Z,14.37
2018-11-02T20:14:10.331Z,15.33
2018-11-02T20:16:37.383Z,14.30
2018-11-02T20:19:04.620Z,17.60
2018-11-02T20:21:31.899Z,16.40
2018-11-02T20:23:58.939Z,16.40
2018-11-02T20:26:26.001Z,17.00
2018-11-02T20:28:53.059Z,18.40
2018-11-02T20:31:20.119Z,16.20
2018-11-02T20:33:47.156Z,19.50
2018-11-02T20:36:14.547Z,20.77
2018-11-02T20:38:41.579Z,16.00
2018-11-02T20:41:08.703Z,16.60
2018-11-02T20:43:36.000Z,17.30
2018-11-02T20:46:03.148Z,16.23
2018-11-02T20:48:30.400Z,14.20
2018-11-02T20:50:57.569Z,14.00
2018-11-02T20:53:24.700Z,12.97
2018-11-02T20:55:52.056Z,13.73
2018-11-02T20:58:19.538Z,14.17
2018-11-02T21:00:46.729Z,14.03
2018-11-02T21:03:13.955Z,14.70
2018-11-02T21:05:41.586Z,13.80
2018-11-02T21:08:08.700Z,19.17
2018-11-02T21:10:35.904Z,19.47
2018-11-02T21:13:03.264Z,16.50
2018-11-02T21:15:30.351Z,14.97
2018-11-02T21:17:57.512Z,16.20
2018-11-02T21:20:25.757Z,14.27
2018-11-02T21:22:52.847Z,15.83
2018-11-02T21:25:20.043Z,15.43
2018-11-02T21:27:48.030Z,14.03
2018-11-02T21:30:16.411Z,17.00
2018-11-02T21:32:44.356Z,15.60
2018-11-02T21:35:11.736Z,16.83
2018-11-02T21:37:38.849Z,16.87
2018-11-02T21:40:06.656Z,17.13
2018-11-02T21:42:33.702Z,22.00
2018-11-02T21:45:00.789Z,19.60
2018-11-02T21:47:27.894Z,19.20
2018-11-02T21:49:55.203Z,26.80
2018-11-02T21:52:22.235Z,20.70
2018-11-02T21:54:49.267Z,21.00
2018-11-02T21:57:16.647Z,21.80
2018-11-02T21:59:43.696Z,18.57
2018-11-02T22:02:10.739Z,23.10
2018-11-02T22:04:37.843Z,18.53
2018-11-02T22:07:04.917Z,19.57
2018-11-02T22:09:31.976Z,17.97
2018-11-02T22:11:59.033Z,24.80
2018-11-02T22:14:32.964Z,19.90
2018-11-02T22:17:00.249Z,21.83
2018-11-02T22:19:27.499Z,21.97
2018-11-02T22:21:54.512Z,23.37
2018-11-02T22:24:22.031Z,21.50
2018-11-02T22:26:49.082Z,20.90
2018-11-02T22:29:16.149Z,20.97
2018-11-02T22:33:12.932Z,17.50
2018-11-02T22:35:40.024Z,22.97
2018-11-02T22:38:07.093Z,19.63
2018-11-02T22:40:34.397Z,19.57
2018-11-02T22:43:01.506Z,20.70
2018-11-02T22:45:28.503Z,22.30
2018-11-02T22:48:01.608Z,22.70
2018-11-02T22:50:28.684Z,19.47
2018-11-02T22:52:55.732Z,21.00
2018-11-02T22:55:22.889Z,22.00
2018-11-02T22:57:49.938Z,20.47
2018-11-02T23:00:18.050Z,19.90
2018-11-02T23:02:46.088Z,22.40
2018-11-02T23:05:13.182Z,21.37
2018-11-02T23:07:40.345Z,20.00
2018-11-02T23:10:08.052Z,20.40
2018-11-02T23:12:35.186Z,19.03
2018-11-02T23:15:02.238Z,17.67
2018-11-02T23:17:29.532Z,19.10
2018-11-02T23:19:56.588Z,19.67
2018-11-02T23:22:23.761Z,18.50
2018-11-02T23:24:50.824Z,18.67
2018-11-02T23:27:17.875Z,20.00
2018-11-02T23:29:44.960Z,20.67
2018-11-02T23:32:12.020Z,19.13
2018-11-02T23:34:39.076Z,19.90
2018-11-02T23:37:06.141Z,20.53
2018-11-02T23:39:33.281Z,19.30
2018-11-02T23:42:00.336Z,18.90
2018-11-02T23:44:27.380Z,19.10
2018-11-02T23:46:54.435Z,19.53
2018-11-02T23:49:21.495Z,19.60
2018-11-02T23:51:48.538Z,19.70
2018-11-02T23:54:15.845Z,19.00
2018-11-02T23:56:42.888Z,19.73
2018-11-02T23:59:09.943Z,20.40
